createdAt,value
2023-02-05T00:01:50.430Z,103292.59
2023-02-05T00:04:18.459Z,103301.66
2023-02-05T00:06:46.456Z,103295.28
2023-02-05T00:09:14.287Z,103291.66
2023-02-05T00:11:42.106Z,103290.72
2023-02-05T00:14:10.884Z,103284.28
2023-02-05T00:16:40.069Z,103281.50
2023-02-05T00:19:08.042Z,103275.16
2023-02-05T00:21:36.357Z,103277.00
2023-02-05T00:24:04.464Z,103274.25
2023-02-05T00:26:32.360Z,103259.72
2023-02-05T00:29:00.413Z,103258.03
2023-02-05T00:31:29.026Z,103264.44
2023-02-05T00:34:00.864Z,103266.31
2023-02-05T00:36:28.808Z,103271.03
2023-02-05T00:38:57.109Z,103267.47
2023-02-05T00:41:25.260Z,103268.34
2023-02-05T00:43:53.175Z,103261.13
2023-02-05T00:46:21.150Z,103260.28
2023-02-05T00:48:49.103Z,103254.78
2023-02-05T00:51:18.415Z,103241.09
2023-02-05T00:53:46.269Z,103230.28
2023-02-05T00:56:14.652Z,103223.84
2023-02-05T00:58:47.382Z,103222.94
2023-02-05T01:01:15.883Z,103213.91
2023-02-05T01:03:44.492Z,103202.91
2023-02-05T01:06:13.385Z,103197.50
2023-02-05T01:08:42.766Z,103201.13
2023-02-05T01:11:11.516Z,103199.34
2023-02-05T01:13:40.346Z,103193.94
2023-02-05T01:16:10.327Z,103188.63
2023-02-05T01:18:38.348Z,103178.66
2023-02-05T01:21:06.471Z,103166.00
2023-02-05T01:23:34.298Z,103156.13
2023-02-05T01:26:03.512Z,103155.25
2023-02-05T01:28:31.329Z,103144.53
2023-02-05T01:30:59.262Z,103152.81
2023-02-05T01:33:27.126Z,103159.31
2023-02-05T01:35:54.892Z,103171.22
2023-02-05T01:38:22.695Z,103170.38
2023-02-05T01:40:50.508Z,103164.09
2023-02-05T01:43:20.142Z,103164.09
2023-02-05T01:46:12.289Z,103175.97
2023-02-05T01:48:45.014Z,103182.34
2023-02-05T01:51:17.044Z,103175.19
2023-02-05T01:53:47.178Z,103176.13
2023-02-05T01:56:20.940Z,103174.19
2023-02-05T01:58:55.623Z,103175.06
2023-02-05T02:01:24.069Z,103176.00
2023-02-05T02:03:54.673Z,103175.06
2023-02-05T02:06:22.497Z,103183.25
2023-02-05T02:08:50.297Z,103178.69
2023-02-05T02:11:20.833Z,103175.00
2023-02-05T02:13:52.926Z,103180.38
2023-02-05T02:16:21.478Z,103188.69
2023-02-05T02:18:49.591Z,103194.00
2023-02-05T02:21:39.992Z,103203.03
2023-02-05T02:24:31.429Z,103203.97
2023-02-05T02:27:19.228Z,103211.22
2023-02-05T02:29:56.437Z,103203.03
2023-02-05T02:32:31.349Z,103210.25
2023-02-05T02:35:08.284Z,103211.09
2023-02-05T02:37:41.020Z,103205.69
2023-02-05T02:40:15.013Z,103209.38
2023-02-05T02:42:48.594Z,103206.44
2023-02-05T02:45:21.229Z,103207.41
2023-02-05T02:47:53.680Z,103201.09
2023-02-05T02:50:26.967Z,103195.63
2023-02-05T02:52:56.893Z,103189.22
2023-02-05T02:55:26.645Z,103184.66
2023-02-05T02:57:57.070Z,103183.69
2023-02-05T03:00:29.695Z,103177.31
2023-02-05T03:03:03.812Z,103176.41
2023-02-05T03:05:33.429Z,103182.75
2023-02-05T03:08:07.670Z,103174.47
2023-02-05T03:10:42.575Z,103173.53
2023-02-05T03:13:12.178Z,103165.41
2023-02-05T03:15:46.378Z,103156.28
2023-02-05T03:18:16.766Z,103152.59
2023-02-05T03:20:50.739Z,103147.94
2023-02-05T03:23:19.661Z,103149.78
2023-02-05T03:25:47.539Z,103152.53
2023-02-05T03:28:18.049Z,103145.22
2023-02-05T03:30:55.611Z,103137.84
2023-02-05T03:33:46.949Z,103138.78
2023-02-05T03:36:24.942Z,103137.94
2023-02-05T03:39:08.260Z,103126.94
2023-02-05T03:41:57.365Z,103134.31
2023-02-05T03:45:05.787Z,103136.09
2023-02-05T03:47:52.885Z,103123.31
2023-02-05T03:50:26.131Z,103121.47
2023-02-05T03:53:02.320Z,103115.88
2023-02-05T03:55:34.829Z,103118.69
2023-02-05T03:58:09.343Z,103118.75
2023-02-05T04:00:38.676Z,103133.25
2023-02-05T04:03:08.330Z,103133.22
2023-02-05T04:05:37.443Z,103131.44
2023-02-05T04:08:05.867Z,103135.06
2023-02-05T04:10:40.126Z,103134.16
2023-02-05T04:13:07.969Z,103134.09
2023-02-05T04:15:36.852Z,103129.59
2023-02-05T04:18:10.084Z,103136.81
2023-02-05T04:20:38.025Z,103128.69
2023-02-05T04:23:07.775Z,103137.78
2023-02-05T04:25:37.500Z,103141.38
2023-02-05T04:28:07.613Z,103144.13
2023-02-05T04:30:35.682Z,103152.34
2023-02-05T04:33:04.999Z,103155.06
2023-02-05T04:35:34.772Z,103152.28
2023-02-05T04:38:03.057Z,103156.03
2023-02-05T04:40:30.988Z,103162.38
2023-02-05T04:42:58.816Z,103164.25
2023-02-05T04:45:31.015Z,103158.81
2023-02-05T04:47:59.557Z,103168.06
2023-02-05T04:50:27.946Z,103166.16
2023-02-05T04:52:57.124Z,103157.97
2023-02-05T04:55:24.877Z,103161.63
2023-02-05T04:57:52.904Z,103149.00
2023-02-05T05:00:21.241Z,103150.81
2023-02-05T05:02:49.046Z,103139.03
2023-02-05T05:05:17.162Z,103149.94
2023-02-05T05:07:45.019Z,103146.31
2023-02-05T05:10:14.211Z,103149.03
2023-02-05T05:12:42.013Z,103143.66
2023-02-05T05:15:10.265Z,103134.53
2023-02-05T05:17:38.034Z,103130.91
2023-02-05T05:20:06.442Z,103131.78
2023-02-05T05:22:34.779Z,103133.56
2023-02-05T05:25:02.581Z,103119.94
2023-02-05T05:27:31.739Z,103130.78
2023-02-05T05:29:59.516Z,103128.13
2023-02-05T05:32:27.363Z,103131.75
2023-02-05T05:34:57.060Z,103131.75
2023-02-05T05:37:24.979Z,103131.75
2023-02-05T05:40:10.012Z,103130.84
2023-02-05T05:42:57.429Z,103131.66
2023-02-05T05:45:25.515Z,103115.44
2023-02-05T05:47:53.324Z,103125.41
2023-02-05T05:50:21.310Z,103128.13
2023-02-05T05:52:49.057Z,103127.19
2023-02-05T05:55:16.987Z,103126.28
2023-02-05T05:57:46.128Z,103120.75
2023-02-05T06:00:15.342Z,103126.28
2023-02-05T06:02:44.713Z,103124.44
2023-02-05T06:05:14.170Z,103127.09
2023-02-05T06:07:41.962Z,103137.19
2023-02-05T06:10:10.264Z,103127.19
2023-02-05T06:12:38.045Z,103127.19
2023-02-05T06:15:08.505Z,103132.53
2023-02-05T06:17:36.285Z,103127.19
2023-02-05T06:20:04.225Z,103126.28
2023-02-05T06:22:31.980Z,103118.09
2023-02-05T06:24:59.734Z,103111.78
2023-02-05T06:27:27.543Z,103115.38
2023-02-05T06:29:55.364Z,103112.66
2023-02-05T06:32:26.742Z,103115.28
2023-02-05T06:34:54.760Z,103113.59
2023-02-05T06:37:34.195Z,103111.78
2023-02-05T06:40:15.616Z,103119.94
2023-02-05T06:42:43.857Z,103114.50
2023-02-05T06:45:12.352Z,103112.66
2023-02-05T06:47:41.547Z,103106.25
2023-02-05T06:50:10.066Z,103106.31
2023-02-05T06:52:38.217Z,103102.69
2023-02-05T06:55:06.808Z,103099.97
2023-02-05T06:57:34.585Z,103099.09
2023-02-05T07:00:02.400Z,103095.47
2023-02-05T07:02:30.202Z,103093.69
2023-02-05T07:04:59.349Z,103094.53
2023-02-05T07:07:27.135Z,103101.88
2023-02-05T07:09:55.208Z,103100.97
2023-02-05T07:12:24.113Z,103095.53
2023-02-05T07:14:51.861Z,103092.78
2023-02-05T07:17:20.868Z,103097.34
2023-02-05T07:19:48.769Z,103094.63
2023-02-05T07:22:17.921Z,103086.44
2023-02-05T07:24:45.741Z,103091.97
2023-02-05T07:27:13.638Z,103093.81
2023-02-05T07:29:41.492Z,103097.41
2023-02-05T07:32:09.542Z,103100.13
2023-02-05T07:34:37.463Z,103091.06
2023-02-05T07:37:05.209Z,103092.06
2023-02-05T07:39:34.454Z,103101.97
2023-02-05T07:42:02.262Z,103098.44
2023-02-05T07:44:38.390Z,103097.56
2023-02-05T07:47:06.321Z,103092.09
2023-02-05T07:49:34.179Z,103094.88
2023-02-05T07:52:02.011Z,103089.44
2023-02-05T07:54:29.871Z,103090.38
2023-02-05T07:57:00.134Z,103093.06
2023-02-05T07:59:28.340Z,103094.94
2023-02-05T08:01:56.098Z,103092.22
2023-02-05T08:04:23.961Z,103093.16
2023-02-05T08:06:51.820Z,103095.00
2023-02-05T08:09:19.738Z,103095.94
2023-02-05T08:11:47.596Z,103089.59
2023-02-05T08:14:16.992Z,103092.31
2023-02-05T08:16:44.753Z,103093.38
2023-02-05T08:19:16.154Z,103096.97
2023-02-05T08:21:44.337Z,103100.81
2023-02-05T08:24:12.170Z,103095.44
2023-02-05T08:26:40.419Z,103100.06
2023-02-05T08:29:08.853Z,103091.91
2023-02-05T08:31:38.801Z,103091.94
2023-02-05T08:34:06.873Z,103101.06
2023-02-05T08:36:34.744Z,103101.16
2023-02-05T08:39:02.522Z,103110.31
2023-02-05T08:41:30.420Z,103112.16
2023-02-05T08:43:58.201Z,103111.31
2023-02-05T08:46:31.545Z,103114.00
2023-02-05T08:49:06.601Z,103118.59
2023-02-05T08:51:35.694Z,103111.44
2023-02-05T08:54:03.689Z,103116.88
2023-02-05T08:56:31.808Z,103119.66
2023-02-05T08:58:59.614Z,103115.25
2023-02-05T09:01:27.403Z,103128.03
2023-02-05T09:03:55.280Z,103131.75
2023-02-05T09:06:24.630Z,103120.84
2023-02-05T09:08:52.566Z,103128.25
2023-02-05T09:11:21.937Z,103137.31
2023-02-05T09:13:49.804Z,103132.88
2023-02-05T09:16:17.577Z,103137.53
2023-02-05T09:18:45.717Z,103149.31
2023-02-05T09:21:14.729Z,103142.97
2023-02-05T09:23:43.951Z,103143.97
2023-02-05T09:26:11.761Z,103147.66
2023-02-05T09:28:39.618Z,103148.56
2023-02-05T09:31:09.274Z,103147.66
2023-02-05T09:33:37.550Z,103149.56
2023-02-05T09:36:09.621Z,103150.44
2023-02-05T09:38:37.860Z,103154.25
2023-02-05T09:41:16.165Z,103155.94
2023-02-05T09:43:51.744Z,103151.44
2023-02-05T09:46:27.952Z,103161.44
2023-02-05T09:49:00.810Z,103153.28
2023-02-05T09:51:34.840Z,103165.13
2023-02-05T09:54:12.961Z,103157.81
2023-02-05T09:56:43.968Z,103168.72
2023-02-05T09:59:17.152Z,103168.81
2023-02-05T10:01:49.046Z,103161.56
2023-02-05T10:04:17.112Z,103168.91
2023-02-05T10:07:17.079Z,103171.56
2023-02-05T10:10:00.953Z,103169.78
2023-02-05T10:12:43.136Z,103169.78
2023-02-05T10:15:26.761Z,103163.47
2023-02-05T10:18:09.201Z,103152.53
2023-02-05T10:20:53.151Z,103161.63
2023-02-05T10:23:36.105Z,103170.63
2023-02-05T10:26:10.936Z,103165.28
2023-02-05T10:28:56.093Z,103160.63
2023-02-05T10:31:29.131Z,103155.25
2023-02-05T10:34:03.989Z,103156.13
2023-02-05T10:36:32.248Z,103150.03
2023-02-05T10:39:01.609Z,103149.84
2023-02-05T10:41:36.751Z,103139.78
2023-02-05T10:44:13.358Z,103141.56
2023-02-05T10:46:42.799Z,103141.56
2023-02-05T10:49:16.400Z,103141.56
2023-02-05T10:51:46.379Z,103132.50
2023-02-05T10:54:21.562Z,103130.59
2023-02-05T10:56:49.570Z,103140.69
2023-02-05T10:59:23.617Z,103137.81
2023-02-05T11:01:52.572Z,103147.81
2023-02-05T11:04:27.784Z,103155.94
2023-02-05T11:06:55.869Z,103150.56
2023-02-05T11:09:35.554Z,103146.78
2023-02-05T11:12:06.299Z,103146.84
2023-02-05T11:14:37.931Z,103137.72
2023-02-05T11:17:11.419Z,103143.16
2023-02-05T11:19:39.540Z,103143.22
2023-02-05T11:22:07.338Z,103153.16
2023-02-05T11:24:39.469Z,103145.88
2023-02-05T11:27:28.873Z,103148.66
2023-02-05T11:30:01.099Z,103149.50
2023-02-05T11:32:36.194Z,103146.84
2023-02-05T11:35:19.090Z,103150.41
2023-02-05T11:37:49.841Z,103146.88
2023-02-05T11:40:22.629Z,103150.41
2023-02-05T11:43:01.417Z,103141.38
2023-02-05T11:45:32.541Z,103145.06
2023-02-05T11:48:05.150Z,103144.09
2023-02-05T11:50:34.459Z,103155.19
2023-02-05T11:53:16.409Z,103146.88
2023-02-05T11:55:45.625Z,103142.47
2023-02-05T11:58:36.154Z,103148.72
2023-02-05T12:01:21.942Z,103148.84
2023-02-05T12:04:00.190Z,103151.56
2023-02-05T12:06:34.735Z,103157.06
2023-02-05T12:09:03.383Z,103159.84
2023-02-05T12:12:00.204Z,103157.06
2023-02-05T12:14:39.364Z,103165.28
2023-02-05T12:17:24.742Z,103157.13
2023-02-05T12:19:59.540Z,103151.69
2023-02-05T12:22:45.574Z,103148.94
2023-02-05T12:25:21.792Z,103147.16
2023-02-05T12:28:04.815Z,103144.41
2023-02-05T12:30:39.381Z,103145.38
2023-02-05T12:33:28.599Z,103144.59
2023-02-05T12:36:08.293Z,103143.56
2023-02-05T12:38:49.278Z,103148.06
2023-02-05T12:41:27.659Z,103148.06
2023-02-05T12:44:04.198Z,103151.69
2023-02-05T12:46:46.169Z,103145.28
2023-02-05T12:49:29.035Z,103148.00
2023-02-05T12:52:15.034Z,103159.84
2023-02-05T12:54:55.912Z,103151.63
2023-02-05T12:57:27.635Z,103156.13
2023-02-05T13:00:02.082Z,103166.97
2023-02-05T13:02:36.358Z,103162.47
2023-02-05T13:05:16.916Z,103153.34
2023-02-05T13:07:49.234Z,103166.09
2023-02-05T13:10:19.794Z,103165.25
2023-02-05T13:12:54.084Z,103166.09
2023-02-05T13:15:24.337Z,103164.25
2023-02-05T13:18:00.691Z,103180.50
2023-02-05T13:20:51.343Z,103167.88
2023-02-05T13:23:37.790Z,103180.63
2023-02-05T13:26:24.734Z,103177.06
2023-02-05T13:28:55.121Z,103182.63
2023-02-05T13:31:31.511Z,103185.28
2023-02-05T13:34:04.863Z,103179.84
2023-02-05T13:37:15.018Z,103189.97
2023-02-05T13:40:19.765Z,103193.66
2023-02-05T13:43:20.971Z,103201.75
2023-02-05T13:46:18.900Z,103205.47
2023-02-05T13:49:23.398Z,103216.31
2023-02-05T13:52:25.184Z,103222.75
2023-02-05T13:55:26.271Z,103231.84
2023-02-05T13:58:14.757Z,103232.84
2023-02-05T14:00:45.477Z,103240.97
2023-02-05T14:03:34.954Z,103252.72
2023-02-05T14:06:24.115Z,103264.59
2023-02-05T14:08:57.389Z,103253.78
2023-02-05T14:11:26.962Z,103268.19
2023-02-05T14:14:26.676Z,103279.31
2023-02-05T14:16:56.021Z,103276.53
2023-02-05T14:19:26.952Z,103285.47
2023-02-05T14:22:07.322Z,103270.91
2023-02-05T14:24:42.303Z,103282.84
2023-02-05T14:27:52.296Z,103272.97
2023-02-05T14:30:53.013Z,103284.81
2023-02-05T14:33:38.840Z,103282.84
2023-02-05T14:36:43.442Z,103282.03
2023-02-05T14:39:23.062Z,103281.09
2023-02-05T14:41:55.931Z,103289.25
2023-02-05T14:44:28.537Z,103301.09
2023-02-05T14:47:07.181Z,103292.88
2023-02-05T14:49:42.845Z,103301.94
2023-02-05T14:52:28.034Z,103300.16
2023-02-05T14:55:01.546Z,103303.75
2023-02-05T14:57:36.525Z,103312.81
2023-02-05T15:00:08.818Z,103309.09
2023-02-05T15:03:08.425Z,103312.81
2023-02-05T15:05:42.352Z,103313.69
2023-02-05T15:08:15.614Z,103310.94
2023-02-05T15:10:48.772Z,103305.44
2023-02-05T15:13:18.342Z,103311.75
2023-02-05T15:16:24.830Z,103303.53
2023-02-05T15:18:57.462Z,103303.59
2023-02-05T15:21:29.599Z,103309.03
2023-02-05T15:24:02.538Z,103309.03
2023-02-05T15:26:40.725Z,103312.56
2023-02-05T15:29:14.737Z,103319.75
2023-02-05T15:31:47.092Z,103326.06
2023-02-05T15:34:30.854Z,103320.59
2023-02-05T15:37:05.071Z,103327.78
2023-02-05T15:39:42.307Z,103329.56
2023-02-05T15:42:16.746Z,103342.22
2023-02-05T15:44:44.978Z,103345.81
2023-02-05T15:47:19.225Z,103346.63
2023-02-05T15:49:51.604Z,103352.97
2023-02-05T15:52:23.724Z,103360.22
2023-02-05T15:54:54.348Z,103372.97
2023-02-05T15:57:26.064Z,103374.72
2023-02-05T15:59:55.446Z,103371.94
2023-02-05T16:02:26.218Z,103368.34
2023-02-05T16:04:58.245Z,103372.84
2023-02-05T16:07:27.954Z,103378.38
2023-02-05T16:09:58.637Z,103375.66
2023-02-05T16:12:27.185Z,103386.56
2023-02-05T16:15:02.599Z,103381.06
2023-02-05T16:17:37.056Z,103389.28
2023-02-05T16:20:18.571Z,103396.50
2023-02-05T16:22:49.371Z,103399.34
2023-02-05T16:25:31.443Z,103401.97
2023-02-05T16:28:01.897Z,103402.00
2023-02-05T16:30:34.408Z,103401.06
2023-02-05T16:33:05.378Z,103409.28
2023-02-05T16:35:38.769Z,103403.75
2023-02-05T16:38:09.375Z,103406.50
2023-02-05T16:40:43.070Z,103401.91
2023-02-05T16:43:31.693Z,103404.63
2023-02-05T16:46:25.705Z,103403.78
2023-02-05T16:48:55.462Z,103405.56
2023-02-05T16:51:40.596Z,103424.56
2023-02-05T16:54:33.901Z,103416.50
2023-02-05T16:57:10.301Z,103427.38
2023-02-05T16:59:52.745Z,103440.03
2023-02-05T17:02:29.622Z,103433.75
2023-02-05T17:04:59.136Z,103431.91
2023-02-05T17:07:29.369Z,103441.91
2023-02-05T17:10:17.507Z,103444.59
2023-02-05T17:12:52.403Z,103454.66
2023-02-05T17:15:29.953Z,103459.16
2023-02-05T17:18:04.435Z,103456.56
2023-02-05T17:20:34.389Z,103464.78
2023-02-05T17:23:11.719Z,103470.16
2023-02-05T17:25:42.037Z,103478.44
2023-02-05T17:28:16.781Z,103481.16
2023-02-05T17:30:46.311Z,103487.56
2023-02-05T17:33:17.906Z,103484.84
2023-02-05T17:35:45.991Z,103484.00
2023-02-05T17:38:15.905Z,103483.13
2023-02-05T17:40:44.278Z,103493.19
2023-02-05T17:43:12.066Z,103492.28
2023-02-05T17:45:41.430Z,103493.19
2023-02-05T17:48:10.052Z,103499.56
2023-02-05T17:50:38.600Z,103499.59
2023-02-05T17:53:06.706Z,103508.72
2023-02-05T17:55:35.959Z,103499.59
2023-02-05T17:58:03.800Z,103490.66
2023-02-05T18:00:32.921Z,103497.03
2023-02-05T18:03:00.912Z,103497.06
2023-02-05T18:05:28.800Z,103503.47
2023-02-05T18:07:58.689Z,103495.28
2023-02-05T18:10:28.743Z,103504.34
2023-02-05T18:12:57.983Z,103509.84
2023-02-05T18:15:26.926Z,103510.78
2023-02-05T18:17:54.804Z,103518.06
2023-02-05T18:20:22.738Z,103522.56
2023-02-05T18:22:50.781Z,103528.94
2023-02-05T18:25:18.752Z,103522.56
2023-02-05T18:27:47.543Z,103519.84
2023-02-05T18:30:16.979Z,103517.13
2023-02-05T18:32:44.819Z,103515.31
2023-02-05T18:35:14.774Z,103528.03
2023-02-05T18:37:43.655Z,103521.66
2023-02-05T18:40:13.551Z,103524.38
2023-02-05T18:42:41.602Z,103534.38
2023-02-05T18:45:10.742Z,103531.66
2023-02-05T18:47:40.171Z,103528.94
2023-02-05T18:50:10.269Z,103533.50
2023-02-05T18:52:38.692Z,103536.22
2023-02-05T18:55:07.673Z,103542.56
2023-02-05T18:57:35.648Z,103553.44
2023-02-05T19:00:03.602Z,103552.53
2023-02-05T19:02:33.652Z,103558.94
2023-02-05T19:05:04.227Z,103557.09
2023-02-05T19:07:32.106Z,103564.38
2023-02-05T19:10:00.110Z,103555.31
2023-02-05T19:12:27.915Z,103568.06
2023-02-05T19:14:55.988Z,103567.16
2023-02-05T19:17:27.284Z,103572.63
2023-02-05T19:19:55.660Z,103581.72
2023-02-05T19:22:24.847Z,103593.50
2023-02-05T19:24:52.917Z,103595.31
2023-02-05T19:27:20.900Z,103596.25
2023-02-05T19:29:50.306Z,103595.38
2023-02-05T19:32:18.098Z,103605.34
2023-02-05T19:34:46.650Z,103614.41
2023-02-05T19:37:14.633Z,103609.88
2023-02-05T19:39:43.853Z,103623.47
2023-02-05T19:42:11.747Z,103622.63
2023-02-05T19:44:39.635Z,103625.34
2023-02-05T19:47:08.499Z,103622.63
2023-02-05T19:49:36.564Z,103625.34
2023-02-05T19:52:05.327Z,103628.06
2023-02-05T19:54:33.263Z,103636.25
2023-02-05T19:57:02.776Z,103640.75
2023-02-05T19:59:30.573Z,103642.63
2023-02-05T20:01:58.439Z,103641.72
2023-02-05T20:04:28.715Z,103648.06
2023-02-05T20:06:58.180Z,103638.09
2023-02-05T20:09:27.294Z,103637.16
2023-02-05T20:11:55.723Z,103635.38
2023-02-05T20:14:25.481Z,103637.16
2023-02-05T20:16:53.723Z,103630.81
2023-02-05T20:19:21.918Z,103642.63
2023-02-05T20:21:49.986Z,103644.44
2023-02-05T20:24:17.884Z,103647.16
2023-02-05T20:26:48.278Z,103649.00
2023-02-05T20:29:33.906Z,103640.81
2023-02-05T20:32:03.167Z,103640.91
2023-02-05T20:34:34.052Z,103641.81
2023-02-05T20:37:05.594Z,103639.13
2023-02-05T20:39:35.308Z,103649.06
2023-02-05T20:42:03.779Z,103648.19
2023-02-05T20:44:33.768Z,103650.94
2023-02-05T20:47:03.196Z,103655.44
2023-02-05T20:49:31.054Z,103655.47
2023-02-05T20:51:59.049Z,103651.84
2023-02-05T20:54:26.879Z,103640.06
2023-02-05T20:56:56.988Z,103641.00
2023-02-05T20:59:24.934Z,103647.34
2023-02-05T21:01:52.986Z,103645.56
2023-02-05T21:04:22.677Z,103646.44
2023-02-05T21:06:50.560Z,103661.00
2023-02-05T21:09:18.394Z,103660.09
2023-02-05T21:11:46.221Z,103680.06
2023-02-05T21:14:14.150Z,103668.28
2023-02-05T21:16:41.949Z,103664.75
2023-02-05T21:19:10.314Z,103666.56
2023-02-05T21:21:40.864Z,103672.91
2023-02-05T21:24:12.298Z,103678.34
2023-02-05T21:26:42.164Z,103679.28
2023-02-05T21:29:11.691Z,103672.03
2023-02-05T21:31:41.743Z,103671.13
2023-02-05T21:34:11.899Z,103682.94
2023-02-05T21:36:41.396Z,103692.94
2023-02-05T21:39:10.597Z,103688.47
2023-02-05T21:41:38.646Z,103689.41
2023-02-05T21:44:06.519Z,103693.09
2023-02-05T21:46:34.772Z,103704.91
2023-02-05T21:49:04.084Z,103702.22
2023-02-05T21:51:33.992Z,103693.19
2023-02-05T21:54:05.493Z,103692.38
2023-02-05T21:56:35.493Z,103710.53
2023-02-05T21:59:03.479Z,103711.47
2023-02-05T22:01:33.114Z,103717.81
2023-02-05T22:04:02.540Z,103720.56
2023-02-05T22:06:32.369Z,103711.56
2023-02-05T22:09:01.464Z,103720.69
2023-02-05T22:11:30.704Z,103718.88
2023-02-05T22:13:58.516Z,103725.28
2023-02-05T22:16:27.985Z,103720.78
2023-02-05T22:18:58.352Z,103713.56
2023-02-05T22:21:28.242Z,103712.75
2023-02-05T22:23:57.484Z,103717.31
2023-02-05T22:26:28.344Z,103725.50
2023-02-05T22:28:59.311Z,103722.81
2023-02-05T22:31:29.512Z,103719.28
2023-02-05T22:33:58.038Z,103727.50
2023-02-05T22:36:27.862Z,103726.59
2023-02-05T22:38:56.335Z,103732.09
2023-02-05T22:41:26.323Z,103733.97
2023-02-05T22:43:55.444Z,103739.47
2023-02-05T22:46:26.678Z,103739.47
2023-02-05T22:48:55.425Z,103739.53
2023-02-05T22:51:27.019Z,103737.75
2023-02-05T22:53:55.635Z,103731.50
2023-02-05T22:56:24.161Z,103747.81
2023-02-05T22:58:53.631Z,103728.84
2023-02-05T23:01:24.781Z,103737.03
2023-02-05T23:03:52.913Z,103743.47
2023-02-05T23:06:23.580Z,103742.56
2023-02-05T23:08:52.524Z,103743.53
2023-02-05T23:11:20.819Z,103741.75
2023-02-05T23:13:49.030Z,103742.75
2023-02-05T23:16:19.352Z,103734.63
2023-02-05T23:18:49.635Z,103740.09
2023-02-05T23:21:20.472Z,103750.09
2023-02-05T23:23:49.719Z,103748.34
2023-02-05T23:26:19.865Z,103754.72
2023-02-05T23:28:48.339Z,103753.84
2023-02-05T23:31:16.714Z,103760.25
2023-02-05T23:33:44.838Z,103768.44
2023-02-05T23:36:14.641Z,103772.09
2023-02-05T23:38:42.723Z,103772.16
2023-02-05T23:41:12.198Z,103779.41
2023-02-05T23:43:40.319Z,103786.69
2023-02-05T23:46:08.712Z,103784.03
2023-02-05T23:48:36.958Z,103787.66
2023-02-05T23:51:04.798Z,103784.09
2023-02-05T23:53:34.015Z,103784.97
2023-02-05T23:56:01.993Z,103785.94
2023-02-05T23:58:29.874Z,103783.25
